Time;durP1;ratioP1;P1;durP2;ratioP2;P2;SDS_P1;SDS_P2;PMS_P1;PMS_P2;Temp;Humidity;BMP_temperature;BMP_pressure;BME280_temperature;BME280_humidity;BME280_pressure;Samples;Min_cycle;Max_cycle;Signal;HPM_P1;HPM_P2
2022/07/25 00:02:01;;;;;;;7.07;5.05;;;;;;;25.68;45.34;100232.78;5068129;28;20219;-64
2022/07/25 00:04:30;;;;;;;7.82;5.15;;;;;;;25.66;45.56;100223.28;5062057;28;20286;-63
2022/07/25 00:06:58;;;;;;;6.55;5.00;;;;;;;25.71;45.56;100223.31;5069551;28;20227;-64
2022/07/25 00:09:27;;;;;;;9.23;5.60;;;;;;;25.73;45.38;100219.28;5069068;28;20315;-64
2022/07/25 00:11:55;;;;;;;6.72;5.22;;;;;;;25.71;45.33;100216.00;5067127;28;20645;-64
2022/07/25 00:14:23;;;;;;;8.15;5.88;;;;;;;25.66;45.44;100218.66;5065055;28;20303;-63
2022/07/25 00:16:51;;;;;;;7.90;5.47;;;;;;;25.60;45.72;100219.66;5066747;28;20203;-63
2022/07/25 00:19:18;;;;;;;7.95;5.22;;;;;;;25.56;45.94;100218.50;5065598;28;20251;-63
2022/07/25 00:21:46;;;;;;;9.80;5.45;;;;;;;25.50;46.08;100208.66;5067206;28;20246;-63
2022/07/25 00:24:14;;;;;;;8.27;4.75;;;;;;;25.43;46.21;100210.72;5065467;28;20220;-62
2022/07/25 00:26:43;;;;;;;7.63;5.85;;;;;;;25.49;46.10;100207.03;5066114;28;20203;-63
2022/07/25 00:29:11;;;;;;;8.38;5.20;;;;;;;25.45;46.01;100208.59;5064853;28;20298;-63
2022/07/25 00:31:39;;;;;;;7.38;5.68;;;;;;;25.47;45.97;100201.03;5066547;28;20285;-63
2022/07/25 00:34:07;;;;;;;9.38;5.75;;;;;;;25.43;46.13;100197.97;5064795;28;20236;-62
2022/07/25 00:36:35;;;;;;;7.40;5.63;;;;;;;25.39;46.16;100198.75;5066915;28;20640;-63
2022/07/25 00:39:03;;;;;;;7.63;5.50;;;;;;;25.34;46.25;100195.94;5067406;28;20297;-64
2022/07/25 00:41:31;;;;;;;7.50;5.45;;;;;;;25.24;46.73;100187.69;5063168;28;20203;-63
2022/07/25 00:44:00;;;;;;;5.85;4.85;;;;;;;25.22;46.67;100185.22;5067324;28;20222;-63
2022/07/25 00:46:28;;;;;;;7.10;5.70;;;;;;;25.20;46.96;100186.53;5065082;28;20204;-62
2022/07/25 00:48:57;;;;;;;6.82;4.65;;;;;;;25.28;46.81;100186.09;5066524;28;20629;-61
2022/07/25 00:51:26;;;;;;;8.35;5.60;;;;;;;25.30;46.71;100179.38;5061277;28;20860;-62
2022/07/25 00:53:54;;;;;;;6.60;5.07;;;;;;;25.29;46.76;100176.91;5064808;28;20235;-64
2022/07/25 00:56:22;;;;;;;7.00;5.68;;;;;;;25.24;46.85;100166.81;5066584;28;20208;-62
2022/07/25 00:58:50;;;;;;;7.75;5.45;;;;;;;25.15;46.97;100167.50;5069176;28;20230;-62
2022/07/25 01:01:19;;;;;;;8.40;5.53;;;;;;;25.05;47.20;100163.56;5067642;28;20242;-62
2022/07/25 01:03:47;;;;;;;8.68;5.20;;;;;;;24.99;47.36;100158.31;5071197;28;20256;-62
2022/07/25 01:06:15;;;;;;;8.55;5.72;;;;;;;24.98;47.61;100153.97;5065034;28;20324;-63
2022/07/25 01:08:43;;;;;;;10.10;5.15;;;;;;;24.95;47.85;100158.00;5066953;28;20527;-62
2022/07/25 01:11:11;;;;;;;10.48;5.10;;;;;;;24.97;47.92;100153.16;5067690;28;20202;-63
2022/07/25 01:13:39;;;;;;;8.15;6.10;;;;;;;24.96;47.98;100159.66;5066829;28;20199;-64
2022/07/25 01:16:07;;;;;;;9.27;5.85;;;;;;;24.99;47.76;100153.69;5071106;28;20211;-63
2022/07/25 01:18:37;;;;;;;8.43;6.05;;;;;;;25.01;47.86;100157.00;5068793;28;20290;-63
2022/07/25 01:21:07;;;;;;;8.15;5.47;;;;;;;25.04;47.44;100156.50;5064936;28;20660;-63
2022/07/25 01:23:34;;;;;;;7.35;5.65;;;;;;;25.03;47.42;100154.84;5066163;28;20226;-63
2022/07/25 01:26:02;;;;;;;6.57;5.10;;;;;;;25.07;47.12;100144.31;5067932;28;20210;-64
2022/07/25 01:28:30;;;;;;;7.75;5.30;;;;;;;25.04;46.92;100145.66;5069859;28;20307;-62
2022/07/25 01:30:58;;;;;;;7.40;5.18;;;;;;;25.05;47.09;100144.59;5067934;28;20286;-63
2022/07/25 01:33:26;;;;;;;6.72;5.38;;;;;;;25.05;47.21;100141.88;5063718;28;21245;-63
2022/07/25 01:35:53;;;;;;;7.47;4.93;;;;;;;25.04;46.88;100140.22;5070966;28;20215;-62
2022/07/25 01:38:22;;;;;;;8.20;5.32;;;;;;;25.00;46.90;100146.38;5068022;28;20207;-63
2022/07/25 01:40:50;;;;;;;9.77;5.45;;;;;;;25.02;46.84;100142.34;5067402;28;20223;-63
2022/07/25 01:43:18;;;;;;;6.45;5.10;;;;;;;25.01;46.57;100139.91;5066423;28;20203;-63
2022/07/25 01:45:46;;;;;;;5.90;5.13;;;;;;;24.93;46.93;100152.00;5064185;28;20207;-63
2022/07/25 01:48:14;;;;;;;8.20;5.65;;;;;;;24.91;47.06;100146.00;5065985;28;20211;-63
2022/07/25 01:50:43;;;;;;;8.95;5.50;;;;;;;24.93;46.92;100143.03;5065600;28;20322;-63
2022/07/25 01:53:11;;;;;;;7.22;5.55;;;;;;;24.86;47.12;100145.91;5065870;28;20251;-63
2022/07/25 01:55:40;;;;;;;9.98;5.57;;;;;;;24.82;47.41;100143.94;5069096;28;20666;-63
2022/07/25 01:58:09;;;;;;;6.90;5.38;;;;;;;24.79;47.55;100150.69;5072606;28;20217;-62
2022/07/25 02:00:37;;;;;;;10.68;5.55;;;;;;;24.76;47.73;100151.16;5071746;28;20231;-63
2022/07/25 02:05:50;;;;;;;8.80;5.60;;;;;;;24.69;48.18;100145.94;5066450;28;20204;-62
2022/07/25 02:08:18;;;;;;;7.50;5.60;;;;;;;24.67;47.97;100136.41;5072812;28;20225;-62
2022/07/25 02:10:47;;;;;;;10.18;6.07;;;;;;;24.62;48.18;100130.91;5071989;28;20199;-62
2022/07/25 02:13:15;;;;;;;8.60;5.40;;;;;;;24.55;48.15;100133.78;5064846;28;20204;-62
2022/07/25 02:15:43;;;;;;;8.57;5.82;;;;;;;24.48;48.51;100127.69;5065792;28;20370;-63
2022/07/25 02:18:11;;;;;;;8.65;5.53;;;;;;;24.44;48.71;100123.03;5068368;28;20217;-63
2022/07/25 02:20:39;;;;;;;10.05;5.82;;;;;;;24.48;48.38;100113.31;5069914;28;20223;-62
2022/07/25 02:23:06;;;;;;;7.63;5.93;;;;;;;24.50;48.38;100111.19;5066469;28;20283;-64
2022/07/25 02:25:36;;;;;;;6.93;5.63;;;;;;;24.52;47.99;100114.50;5065249;28;20649;-64
2022/07/25 02:28:05;;;;;;;7.10;5.43;;;;;;;24.46;48.12;100110.03;5065635;28;20346;-63
2022/07/25 02:30:35;;;;;;;8.25;5.43;;;;;;;24.46;48.20;100115.47;5067133;28;20203;-63
2022/07/25 02:33:03;;;;;;;7.22;5.72;;;;;;;24.40;48.39;100117.28;5067956;28;20241;-63
2022/07/25 02:35:30;;;;;;;7.60;6.07;;;;;;;24.36;48.55;100110.72;5065535;28;20239;-62
2022/07/25 02:37:58;;;;;;;11.13;5.72;;;;;;;24.35;48.36;100115.31;5064765;28;21790;-64
2022/07/25 02:40:26;;;;;;;6.63;5.20;;;;;;;24.36;48.90;100116.94;5063798;28;20285;-63
2022/07/25 02:42:54;;;;;;;7.65;5.80;;;;;;;24.31;49.12;100113.34;5065073;28;20239;-63
2022/07/25 02:45:25;;;;;;;6.50;5.13;;;;;;;24.29;49.55;100116.28;5061454;28;20339;-63
2022/07/25 02:47:56;;;;;;;7.15;5.22;;;;;;;24.28;49.74;100119.25;5066184;28;20342;-63
2022/07/25 02:50:23;;;;;;;8.68;6.18;;;;;;;24.22;50.05;100109.41;5066891;28;20215;-63
2022/07/25 02:52:51;;;;;;;8.48;6.10;;;;;;;24.22;50.04;100098.56;5061118;28;20323;-62
2022/07/25 02:55:19;;;;;;;9.00;5.65;;;;;;;24.26;49.50;100105.97;5041624;28;20218;-63
2022/07/25 02:57:47;;;;;;;9.43;5.60;;;;;;;24.23;49.72;100103.75;5041449;28;20207;-62
2022/07/25 03:00:16;;;;;;;7.63;6.13;;;;;;;24.21;49.80;100105.88;5040357;28;20666;-62
2022/07/25 03:02:45;;;;;;;7.20;6.00;;;;;;;24.10;50.41;100100.50;5042428;28;20195;-64
2022/07/25 03:05:15;;;;;;;13.05;6.20;;;;;;;24.09;50.27;100107.00;5045084;28;20565;-63
2022/07/25 03:07:43;;;;;;;8.85;6.80;;;;;;;24.11;50.80;100110.25;5045136;28;20238;-63
2022/07/25 03:10:13;;;;;;;8.23;6.30;;;;;;;24.09;50.68;100105.09;5040390;28;20287;-63
2022/07/25 03:12:48;;;;;;;9.90;6.38;;;;;;;24.02;51.29;100101.72;5045191;28;20661;-63
2022/07/25 03:15:16;;;;;;;7.47;6.07;;;;;;;23.89;51.60;100102.03;5039905;28;20205;-63
2022/07/25 03:17:59;;;;;;;8.52;6.30;;;;;;;23.78;51.84;100109.16;5031635;28;20238;-63
2022/07/25 03:20:27;;;;;;;8.02;6.13;;;;;;;23.70;52.29;100112.25;5040277;28;20308;-61
2022/07/25 03:22:55;;;;;;;8.55;6.28;;;;;;;23.71;52.01;100108.50;5047326;28;20294;-62
2022/07/25 03:25:22;;;;;;;7.63;6.20;;;;;;;23.77;51.66;100110.22;5046189;28;20295;-62
2022/07/25 03:27:50;;;;;;;11.18;6.32;;;;;;;23.80;51.80;100112.44;5047169;28;20230;-62
2022/07/25 03:30:18;;;;;;;9.73;7.18;;;;;;;23.80;51.45;100106.22;5044562;28;20251;-62
2022/07/25 03:32:46;;;;;;;9.15;6.40;;;;;;;23.82;51.17;100104.09;5044310;28;20224;-62
2022/07/25 03:35:25;;;;;;;10.32;6.57;;;;;;;23.79;51.34;100102.69;5039214;28;20209;-62
2022/07/25 03:37:53;;;;;;;7.40;5.78;;;;;;;23.79;51.00;100097.25;5041506;28;20203;-63
2022/07/25 03:40:30;;;;;;;7.20;6.35;;;;;;;23.85;50.82;100092.75;5047518;28;20215;-62
2022/07/25 03:42:58;;;;;;;8.55;6.47;;;;;;;23.86;50.76;100094.41;5040878;28;20263;-62
2022/07/25 03:45:26;;;;;;;8.20;6.00;;;;;;;23.89;50.76;100088.50;5052824;28;20298;-62
2022/07/25 03:47:54;;;;;;;9.18;6.30;;;;;;;23.84;50.83;100091.94;5048104;28;20227;-62
2022/07/25 03:50:26;;;;;;;8.15;6.85;;;;;;;23.80;50.96;100096.19;5044994;28;20675;-62
2022/07/25 03:52:56;;;;;;;11.65;7.20;;;;;;;23.76;51.44;100088.78;5052478;28;20317;-62
2022/07/25 03:55:24;;;;;;;10.00;6.13;;;;;;;23.71;51.42;100094.94;5069369;28;20703;-62
2022/07/25 03:57:52;;;;;;;7.97;6.38;;;;;;;23.73;51.56;100084.72;5069909;28;20302;-62
2022/07/25 04:00:20;;;;;;;9.80;6.65;;;;;;;23.68;51.76;100087.31;5069596;28;20210;-62
2022/07/25 04:02:48;;;;;;;10.80;6.88;;;;;;;23.70;51.83;100087.91;5069044;28;20227;-62
2022/07/25 04:05:15;;;;;;;10.70;6.47;;;;;;;23.69;51.68;100097.06;5066463;28;20633;-63
2022/07/25 04:07:45;;;;;;;13.75;6.53;;;;;;;23.64;51.94;100097.00;5071566;28;20630;-62
2022/07/25 04:10:21;;;;;;;10.77;6.88;;;;;;;23.57;52.05;100094.41;5067802;28;20645;-62
2022/07/25 04:12:49;;;;;;;15.63;6.45;;;;;;;23.52;52.52;100086.22;5068579;28;20759;-62
2022/07/25 04:15:17;;;;;;;8.18;6.45;;;;;;;23.58;52.19;100079.00;5067684;28;20718;-62
2022/07/25 04:17:45;;;;;;;10.13;7.03;;;;;;;23.54;52.49;100081.38;5068019;28;20203;-62
2022/07/25 04:20:13;;;;;;;12.02;7.35;;;;;;;23.57;52.55;100071.97;5069884;28;20266;-62
2022/07/25 04:22:40;;;;;;;9.40;6.82;;;;;;;23.49;53.19;100075.88;5068952;28;20227;-62
2022/07/25 04:25:14;;;;;;;8.25;6.72;;;;;;;23.52;53.23;100072.69;5072553;28;20203;-62
2022/07/25 04:27:43;;;;;;;8.32;6.53;;;;;;;23.52;53.47;100079.97;5075250;28;20211;-62
2022/07/25 04:30:12;;;;;;;10.20;6.97;;;;;;;23.52;53.41;100067.25;5075218;28;20230;-61
2022/07/25 04:32:50;;;;;;;25.88;7.00;;;;;;;23.60;53.08;100069.59;5067483;28;20227;-61
2022/07/25 04:35:18;;;;;;;13.73;7.18;;;;;;;23.56;53.50;100071.16;5069292;28;20204;-62
2022/07/25 04:37:46;;;;;;;10.57;6.72;;;;;;;23.63;53.40;100065.56;5071236;28;20203;-61
2022/07/25 04:40:15;;;;;;;11.23;7.32;;;;;;;23.70;53.29;100055.41;5065310;28;20217;-61
2022/07/25 04:42:43;;;;;;;14.00;7.03;;;;;;;23.74;53.12;100053.06;5067370;28;20574;-62
2022/07/25 04:45:11;;;;;;;11.45;6.90;;;;;;;23.80;53.20;100061.00;5067346;28;20270;-62
2022/07/25 04:47:39;;;;;;;10.00;7.10;;;;;;;23.84;53.41;100053.19;5068115;28;20717;-62
2022/07/25 04:50:16;;;;;;;11.05;7.53;;;;;;;23.82;53.65;100058.06;5068096;28;20695;-62
2022/07/25 04:52:51;;;;;;;9.45;7.05;;;;;;;23.80;53.58;100057.47;5060601;28;20230;-62
2022/07/25 04:55:20;;;;;;;11.18;7.25;;;;;;;23.81;53.77;100054.53;5045108;28;20205;-62
2022/07/25 04:57:48;;;;;;;13.43;7.65;;;;;;;23.84;53.66;100053.19;5046399;28;20299;-62
2022/07/25 05:00:16;;;;;;;14.73;7.38;;;;;;;23.88;53.63;100054.38;5046025;28;20204;-62
2022/07/25 05:02:44;;;;;;;19.40;6.88;;;;;;;23.92;53.72;100063.66;5045531;28;20223;-62
2022/07/25 05:05:16;;;;;;;10.82;7.00;;;;;;;23.94;53.29;100053.38;5041998;28;20216;-62
2022/07/25 05:11:46;;;;;;;10.25;6.93;;;;;;;23.93;53.75;100054.44;5011443;28;20194;-63
2022/07/25 05:14:21;;;;;;;11.05;7.32;;;;;;;23.99;53.53;100064.31;5039312;28;20236;-62
2022/07/25 05:16:48;;;;;;;11.88;6.70;;;;;;;24.05;53.41;100066.03;5042876;28;20205;-63
2022/07/25 05:19:22;;;;;;;8.40;6.78;;;;;;;24.06;53.12;100062.25;5042022;28;20219;-62
2022/07/25 05:21:50;;;;;;;11.98;6.75;;;;;;;24.06;52.98;100066.84;5043016;28;20223;-62
2022/07/25 05:24:18;;;;;;;11.13;7.28;;;;;;;24.13;52.86;100064.78;5029052;28;20299;-62
2022/07/25 05:26:47;;;;;;;14.27;7.13;;;;;;;24.18;52.71;100060.28;5044191;28;20215;-62
2022/07/25 05:29:15;;;;;;;14.77;7.70;;;;;;;24.20;52.67;100054.59;5042951;28;20204;-62
2022/07/25 05:31:43;;;;;;;10.95;7.53;;;;;;;24.28;52.49;100046.09;5042723;28;20219;-62
2022/07/25 05:34:11;;;;;;;13.48;7.65;;;;;;;24.31;52.50;100049.13;5040209;28;20236;-62
2022/07/25 05:36:39;;;;;;;13.80;9.32;;;;;;;24.40;52.24;100041.41;5044580;28;20246;-62
2022/07/25 05:39:13;;;;;;;13.20;8.77;;;;;;;24.36;52.44;100046.50;5042006;28;20613;-62
2022/07/25 05:41:41;;;;;;;13.88;9.45;;;;;;;24.41;52.44;100045.75;5044655;28;20212;-62
2022/07/25 05:44:10;;;;;;;15.45;9.23;;;;;;;24.36;52.74;100046.50;5042973;28;20771;-62
2022/07/25 05:46:38;;;;;;;10.18;8.90;;;;;;;24.43;53.02;100040.09;5044200;28;20214;-63
2022/07/25 05:49:06;;;;;;;12.70;9.02;;;;;;;24.43;53.31;100042.81;5043699;28;20216;-63
2022/07/25 05:51:34;;;;;;;10.65;9.32;;;;;;;24.44;53.70;100041.75;5045056;28;20295;-63
2022/07/25 05:54:01;;;;;;;12.48;10.50;;;;;;;24.48;53.66;100042.88;5056931;28;20239;-62
2022/07/25 05:56:30;;;;;;;14.50;10.00;;;;;;;24.54;53.68;100033.75;5068630;28;20231;-63
2022/07/25 05:58:58;;;;;;;14.40;10.13;;;;;;;24.58;53.52;100033.00;5068734;28;20290;-62
2022/07/25 06:01:27;;;;;;;14.00;9.73;;;;;;;24.67;53.48;100036.91;5068987;28;20298;-62
2022/07/25 06:03:55;;;;;;;13.40;8.90;;;;;;;24.71;53.47;100031.81;5067491;28;20265;-62
2022/07/25 06:06:24;;;;;;;15.80;8.75;;;;;;;24.79;53.26;100034.09;5068103;28;20215;-62
2022/07/25 06:08:51;;;;;;;15.02;9.25;;;;;;;24.84;53.21;100030.63;5065325;28;20298;-62
2022/07/25 06:11:20;;;;;;;14.65;9.32;;;;;;;24.83;53.26;100029.78;5069348;28;20234;-62
2022/07/25 06:13:49;;;;;;;13.65;10.00;;;;;;;24.83;53.47;100018.94;5065739;28;20556;-62
2022/07/25 06:16:18;;;;;;;13.10;9.85;;;;;;;24.81;53.40;100021.09;5051655;28;20199;-63
2022/07/25 06:18:47;;;;;;;11.80;9.48;;;;;;;24.80;53.76;100019.47;5054024;28;20215;-63
2022/07/25 06:21:15;;;;;;;12.95;9.65;;;;;;;24.84;53.97;100019.75;5048564;28;20255;-63
2022/07/25 06:23:42;;;;;;;14.95;10.07;;;;;;;24.82;54.13;100021.91;5049868;28;20215;-63
2022/07/25 06:26:11;;;;;;;20.98;10.55;;;;;;;24.92;54.04;100016.63;5067845;28;20207;-63
2022/07/25 06:28:38;;;;;;;16.13;10.13;;;;;;;25.04;53.64;100015.44;5068279;28;20286;-63
2022/07/25 06:31:06;;;;;;;18.02;11.00;;;;;;;25.18;53.75;100015.03;5068092;28;20945;-64
2022/07/25 06:33:34;;;;;;;16.83;11.07;;;;;;;25.23;53.21;100015.94;5066520;28;20227;-64
2022/07/25 06:36:04;;;;;;;12.70;10.35;;;;;;;25.33;53.33;100017.94;5070461;28;20212;-63
2022/07/25 06:38:32;;;;;;;12.93;9.85;;;;;;;25.40;53.26;100013.13;5070558;28;20302;-64
2022/07/25 06:41:00;;;;;;;19.63;11.35;;;;;;;25.38;53.48;100020.69;5067859;28;20206;-64
2022/07/25 06:43:28;;;;;;;17.00;9.52;;;;;;;25.38;53.66;100017.97;5066598;28;20232;-64
2022/07/25 06:45:55;;;;;;;11.90;9.15;;;;;;;25.45;53.39;100015.88;5064620;28;20298;-64
2022/07/25 06:48:24;;;;;;;17.25;10.43;;;;;;;25.54;53.34;100016.22;5066708;28;20242;-64
2022/07/25 06:50:51;;;;;;;15.07;9.88;;;;;;;25.63;53.31;100017.44;5068158;28;20239;-65
2022/07/25 06:53:20;;;;;;;13.00;9.98;;;;;;;25.71;53.15;100014.25;5069928;28;20242;-63
2022/07/25 06:55:48;;;;;;;15.98;11.40;;;;;;;25.82;53.41;100011.38;5066753;28;20225;-63
2022/07/25 06:58:16;;;;;;;17.67;10.43;;;;;;;25.84;53.44;100001.06;5069602;28;20222;-63
2022/07/25 07:00:50;;;;;;;13.45;10.10;;;;;;;25.88;53.28;100008.66;5067083;28;20301;-63
2022/07/25 07:03:17;;;;;;;16.15;10.10;;;;;;;25.96;53.34;100002.75;5057105;28;20231;-64
2022/07/25 07:05:45;;;;;;;12.63;10.27;;;;;;;26.04;53.45;100002.28;5064344;28;20654;-64
2022/07/25 07:08:13;;;;;;;16.63;9.95;;;;;;;26.11;53.12;100008.31;5070942;28;20203;-63
2022/07/25 07:10:42;;;;;;;16.27;10.90;;;;;;;26.18;52.47;100003.47;5072466;28;20245;-63
2022/07/25 07:13:11;;;;;;;16.08;10.25;;;;;;;26.18;52.32;100003.47;5062548;28;20650;-63
2022/07/25 07:15:44;;;;;;;16.70;11.27;;;;;;;26.27;52.30;100012.00;5060495;28;20283;-63
2022/07/25 07:18:12;;;;;;;17.67;10.75;;;;;;;26.31;52.06;100011.19;5063466;28;20235;-62
2022/07/25 07:20:40;;;;;;;13.25;9.48;;;;;;;26.38;51.41;100010.97;5066911;28;20218;-63
2022/07/25 07:23:08;;;;;;;14.85;10.32;;;;;;;26.47;51.71;100004.78;5064611;28;20227;-64
2022/07/25 07:25:36;;;;;;;20.00;11.18;;;;;;;26.56;51.11;100005.88;5062811;28;20309;-62
2022/07/25 07:28:06;;;;;;;13.77;10.23;;;;;;;26.62;50.27;100008.66;5067858;28;20203;-63
2022/07/25 07:30:34;;;;;;;13.18;9.98;;;;;;;26.65;50.52;100005.41;5070026;28;20214;-63
2022/07/25 07:33:21;;;;;;;16.17;10.82;;;;;;;26.70;50.61;100005.44;5069249;28;20304;-64
2022/07/25 07:35:49;;;;;;;15.05;10.57;;;;;;;26.71;50.75;100007.88;5067732;28;20235;-66
2022/07/25 07:38:17;;;;;;;18.35;11.23;;;;;;;26.84;50.21;99984.81;5067219;28;20218;-67
2022/07/25 07:40:45;;;;;;;12.38;10.27;;;;;;;26.83;50.57;100002.19;5067229;28;20295;-67
2022/07/25 07:43:14;;;;;;;11.45;9.60;;;;;;;26.84;50.62;99991.06;5074400;28;20231;-65
2022/07/25 07:45:42;;;;;;;11.43;9.90;;;;;;;26.90;50.46;99995.47;5065906;28;20207;-66
2022/07/25 07:48:10;;;;;;;12.38;10.70;;;;;;;27.03;50.10;99996.88;5069474;28;20200;-68
2022/07/25 07:50:39;;;;;;;14.15;10.95;;;;;;;27.02;50.18;99989.78;5070806;28;20207;-68
2022/07/25 07:53:06;;;;;;;14.02;11.48;;;;;;;27.08;49.59;99985.19;5070070;28;20261;-67
2022/07/25 07:55:47;;;;;;;18.10;10.48;;;;;;;27.13;49.96;99983.31;5065861;28;20234;-67
2022/07/25 07:58:18;;;;;;;18.35;10.52;;;;;;;27.19;50.23;99990.38;5069714;28;20207;-66
2022/07/25 08:00:47;;;;;;;13.68;10.00;;;;;;;27.34;49.83;99986.88;5066133;28;20205;-64
2022/07/25 08:03:18;;;;;;;13.98;10.80;;;;;;;27.57;48.71;99996.47;5069078;28;20217;-66
2022/07/25 08:05:50;;;;;;;11.27;10.05;;;;;;;27.57;49.00;99999.19;5066115;28;20222;-65
2022/07/25 08:08:18;;;;;;;13.23;10.32;;;;;;;27.64;48.84;100006.00;5071642;28;20575;-66
2022/07/25 08:10:48;;;;;;;13.13;9.88;;;;;;;27.71;48.20;100003.81;5072223;28;20257;-65
2022/07/25 08:13:18;;;;;;;16.38;10.52;;;;;;;27.85;48.28;100001.38;5071453;28;20290;-68
2022/07/25 08:15:48;;;;;;;11.43;10.15;;;;;;;27.93;47.48;99998.09;5072465;28;20234;-67
2022/07/25 08:18:16;;;;;;;15.30;9.70;;;;;;;28.00;46.75;100004.09;5072884;28;20642;-67
2022/07/25 08:20:45;;;;;;;13.50;9.95;;;;;;;28.13;46.28;100005.44;5061762;28;20234;-67
2022/07/25 08:23:13;;;;;;;15.75;9.68;;;;;;;28.23;45.45;99997.28;5069356;28;20218;-67
2022/07/25 08:25:42;;;;;;;15.75;10.07;;;;;;;28.34;45.58;99989.88;5074940;28;20222;-67
2022/07/25 08:28:10;;;;;;;14.23;10.20;;;;;;;28.43;45.27;99999.13;5068318;28;20290;-67
2022/07/25 08:30:40;;;;;;;10.43;9.32;;;;;;;28.53;45.28;99990.94;5074937;28;20211;-67
2022/07/25 08:33:12;;;;;;;13.30;9.07;;;;;;;28.59;45.35;99994.44;5071399;28;20228;-68
2022/07/25 08:35:40;;;;;;;15.27;9.48;;;;;;;28.64;45.16;99989.00;5070305;28;20235;-67
2022/07/25 08:38:10;;;;;;;17.38;9.68;;;;;;;28.72;45.55;99986.50;5070217;28;20681;-68
2022/07/25 08:40:38;;;;;;;15.25;10.45;;;;;;;28.87;44.79;99973.91;5070355;28;20219;-66
2022/07/25 08:43:06;;;;;;;12.85;10.27;;;;;;;28.98;44.82;99981.75;5073397;28;20203;-65
2022/07/25 08:45:34;;;;;;;10.77;9.68;;;;;;;29.05;44.84;99981.44;5068766;28;20227;-66
2022/07/25 08:48:03;;;;;;;16.60;10.15;;;;;;;29.14;44.75;99974.28;5069736;28;20341;-63
2022/07/25 08:50:31;;;;;;;12.18;9.85;;;;;;;29.27;44.94;99968.22;5067454;28;20765;-64
2022/07/25 08:53:01;;;;;;;19.05;10.40;;;;;;;29.45;44.55;99970.31;5064212;28;20744;-64
2022/07/25 08:55:49;;;;;;;14.90;9.88;;;;;;;29.49;44.68;99971.34;5066976;28;20211;-66
2022/07/25 08:58:18;;;;;;;10.68;9.57;;;;;;;29.55;44.88;99970.22;5066884;28;20291;-64
2022/07/25 09:00:46;;;;;;;11.07;9.95;;;;;;;29.74;44.13;99966.78;5063097;28;20212;-64
2022/07/25 09:03:15;;;;;;;15.82;11.23;;;;;;;29.81;44.82;99972.75;5066734;28;20242;-61
2022/07/25 09:05:44;;;;;;;16.65;11.55;;;;;;;29.92;44.65;99964.16;5067268;28;20291;-62
2022/07/25 09:08:15;;;;;;;13.95;10.82;;;;;;;30.09;44.34;99962.94;5069573;28;20776;-63
2022/07/25 09:10:46;;;;;;;17.42;10.77;;;;;;;30.14;43.82;99960.97;5063960;28;20664;-63
2022/07/25 09:13:15;;;;;;;16.98;11.02;;;;;;;30.12;44.15;99952.25;5064196;28;20254;-64
2022/07/25 09:15:46;;;;;;;19.17;10.07;;;;;;;30.27;43.99;99943.88;5063915;28;20290;-64
2022/07/25 09:18:16;;;;;;;11.25;10.00;;;;;;;30.53;43.84;99932.66;5064975;28;20904;-64
2022/07/25 09:20:46;;;;;;;15.30;11.23;;;;;;;30.71;43.00;99942.81;5059735;28;20210;-63
2022/07/25 09:23:27;;;;;;;13.10;10.50;;;;;;;30.66;43.49;99942.88;5064257;28;20303;-63
2022/07/25 09:26:02;;;;;;;16.30;11.15;;;;;;;30.72;43.79;99933.50;5063897;28;20321;-64
2022/07/25 09:28:30;;;;;;;13.32;11.00;;;;;;;30.78;43.56;99931.53;5062928;28;20286;-64
2022/07/25 09:30:59;;;;;;;10.63;8.98;;;;;;;30.87;44.27;99930.53;5070031;28;20208;-65
2022/07/25 09:33:29;;;;;;;15.88;9.88;;;;;;;30.95;43.87;99924.44;5059840;28;20240;-64
2022/07/25 09:35:57;;;;;;;14.98;10.60;;;;;;;31.14;42.82;99918.19;5060551;28;20823;-65
2022/07/25 09:38:25;;;;;;;12.57;9.65;;;;;;;31.22;42.41;99915.56;5060248;28;20211;-63
2022/07/25 09:40:55;;;;;;;16.75;9.07;;;;;;;31.39;41.48;99907.63;5061221;28;20207;-64
2022/07/25 09:43:24;;;;;;;17.05;9.63;;;;;;;31.58;41.19;99907.56;5065249;28;20195;-63
2022/07/25 09:45:52;;;;;;;12.15;9.70;;;;;;;31.84;39.63;99904.41;5071183;28;20228;-63
2022/07/25 09:48:20;;;;;;;11.00;9.88;;;;;;;31.93;39.88;99910.81;5064498;28;21089;-66
2022/07/25 09:50:50;;;;;;;11.40;9.20;;;;;;;32.02;39.83;99908.97;5061666;28;20733;-66
2022/07/25 09:53:20;;;;;;;9.82;8.73;;;;;;;32.05;40.11;99913.88;5062592;28;20249;-65
2022/07/25 09:55:47;;;;;;;10.85;8.98;;;;;;;32.09;39.56;99906.66;5063106;28;20262;-66
2022/07/25 09:58:15;;;;;;;11.48;8.75;;;;;;;32.23;39.37;99912.19;5066887;28;20298;-66
2022/07/25 10:00:45;;;;;;;13.68;8.82;;;;;;;32.33;39.20;99915.53;5067288;28;20294;-65
2022/07/25 10:03:18;;;;;;;12.98;9.82;;;;;;;32.31;39.07;99909.53;5059648;28;20224;-66
2022/07/25 10:06:02;;;;;;;10.40;8.60;;;;;;;32.23;39.13;99902.03;5068086;28;20636;-64
2022/07/25 10:08:36;;;;;;;13.10;9.00;;;;;;;32.31;38.56;99890.34;5065753;28;20276;-65
2022/07/25 10:11:05;;;;;;;10.20;9.10;;;;;;;32.30;38.49;99888.72;5067565;28;20206;-66
2022/07/25 10:13:37;;;;;;;10.63;8.88;;;;;;;32.54;38.10;99893.16;5065672;28;20239;-66
2022/07/25 10:16:15;;;;;;;9.30;7.85;;;;;;;32.65;36.72;99880.81;5067738;28;20245;-65
2022/07/25 10:18:49;;;;;;;8.93;8.02;;;;;;;32.62;37.58;99893.25;5069996;28;20287;-64
2022/07/25 10:21:19;;;;;;;9.52;8.52;;;;;;;32.58;37.70;99892.25;5060965;28;20263;-64
2022/07/25 10:23:59;;;;;;;9.13;7.93;;;;;;;32.62;37.20;99875.97;5062595;28;20218;-63
2022/07/25 10:26:27;;;;;;;10.88;8.43;;;;;;;32.61;37.77;99880.66;5065380;28;20220;-64
2022/07/25 10:28:56;;;;;;;11.80;7.97;;;;;;;32.77;37.08;99883.88;5065913;28;20664;-64
2022/07/25 10:31:26;;;;;;;9.18;7.95;;;;;;;32.80;37.45;99873.13;5067888;28;20199;-64
2022/07/25 10:33:56;;;;;;;12.85;7.32;;;;;;;32.90;36.72;99877.53;5062450;28;20583;-64
2022/07/25 10:36:29;;;;;;;11.65;8.05;;;;;;;33.12;36.03;99863.84;5066268;28;20256;-64
2022/07/25 10:39:00;;;;;;;12.85;7.90;;;;;;;33.35;35.14;99864.66;5064944;28;20203;-64
2022/07/25 10:41:28;;;;;;;10.50;8.18;;;;;;;33.41;35.58;99855.19;5059858;28;20226;-64
2022/07/25 10:44:00;;;;;;;10.40;8.02;;;;;;;33.48;35.92;99858.28;5066311;28;20210;-63
2022/07/25 10:46:29;;;;;;;9.30;8.30;;;;;;;33.55;35.70;99852.34;5065913;28;20245;-62
2022/07/25 10:48:59;;;;;;;9.43;7.50;;;;;;;33.41;35.79;99857.13;5071659;28;20214;-64
2022/07/25 10:51:31;;;;;;;9.35;6.88;;;;;;;33.31;36.12;99854.63;5066850;28;20221;-65
2022/07/25 10:53:59;;;;;;;16.45;9.05;;;;;;;33.11;35.72;99856.72;5064066;28;20317;-65
2022/07/25 10:56:28;;;;;;;9.43;7.95;;;;;;;33.17;35.08;99854.63;5066373;28;20202;-63
2022/07/25 10:58:58;;;;;;;9.90;7.40;;;;;;;33.28;34.48;99850.56;5066882;28;20217;-64
2022/07/25 11:01:28;;;;;;;11.07;7.70;;;;;;;33.31;35.16;99851.88;5061559;28;20231;-65
2022/07/25 11:03:59;;;;;;;9.88;7.45;;;;;;;33.41;35.15;99846.94;5065355;28;20847;-65
2022/07/25 11:06:34;;;;;;;9.82;7.60;;;;;;;33.49;34.85;99837.09;5061602;28;20313;-64
2022/07/25 11:09:02;;;;;;;11.93;8.13;;;;;;;33.47;35.27;99837.41;5067605;28;20608;-64
2022/07/25 11:11:39;;;;;;;8.90;7.25;;;;;;;33.28;35.47;99841.50;5068343;28;21084;-63
2022/07/25 11:14:15;;;;;;;13.05;7.80;;;;;;;33.27;35.12;99834.38;5062861;28;20203;-63
2022/07/25 11:16:43;;;;;;;9.57;7.40;;;;;;;33.43;34.70;99841.09;5064730;28;21497;-62
2022/07/25 11:19:19;;;;;;;11.60;7.80;;;;;;;33.34;34.87;99834.75;5064954;28;20222;-62
2022/07/25 11:21:50;;;;;;;9.32;7.28;;;;;;;33.36;34.84;99830.56;5063988;28;20276;-64
2022/07/25 11:24:18;;;;;;;10.30;7.35;;;;;;;33.64;34.01;99831.19;5066210;28;20221;-64
2022/07/25 11:26:48;;;;;;;10.60;7.50;;;;;;;33.77;34.33;99822.09;5065226;28;20231;-65
2022/07/25 11:29:22;;;;;;;10.57;6.93;;;;;;;33.85;34.36;99817.75;5070091;28;20223;-66
2022/07/25 11:31:55;;;;;;;12.52;7.47;;;;;;;34.18;33.31;99818.97;5076080;28;20249;-64
2022/07/25 11:34:25;;;;;;;16.80;7.35;;;;;;;34.40;33.22;99831.81;5070183;28;20954;-64
2022/07/25 11:36:56;;;;;;;10.90;7.05;;;;;;;34.21;33.82;99839.53;5075030;28;20199;-65
2022/07/25 11:39:26;;;;;;;9.00;6.97;;;;;;;33.94;33.14;99841.41;5070918;28;20735;-65